North Chatham, NY

2:49 AM EDT on April 26, 2017 (GMT -0400)
Albany International | | Change Station

Elev 282 ft 42.75 °N, 73.80 °W | Updated 35 minutes ago

Overcast
Overcast
50 °F
Feels Like 50 °F
N
8
Wind Variable Wind from North

Today
High -- | Low -- °F
--% Chance of Precip.
Yesterday
High -- | Low -- °F
Precip. -- in
Pressure 29.93 in
Visibility 10.0 miles
Clouds Scattered Clouds 700 ft
Overcast 2300 ft
Dew Point 48 °F
Humidity 93%
Rainfall 0.02 in
Snow Depth Not available.
5:56 AM 7:49 PM
Waning Crescent, 0% visible
SPECI KALB 260614Z 35007KT 10SM -DZ SCT007 OVC023 10/09 A2993 RMK AO2 RAE08DZB08 P0000 T01000089
Pressure 29.93 in
Visibility 10.0 miles
Clouds Scattered Clouds 700 ft
Overcast 2300 ft
Dew Point 48 °F
Humidity 93%
Rainfall 0.02 in
Snow Depth Not available.
5:56 AM 7:49 PM
Waning Crescent, 0% visible
SPECI KALB 260614Z 35007KT 10SM -DZ SCT007 OVC023 10/09 A2993 RMK AO2 RAE08DZB08 P0000 T01000089

Get Severe Weather Alerts

Thanks for signing up!

Be on the lookout for a verification email in your inbox.

You'll start receiving the daily forecast at 8 AM.

×

10-Day Weather Forecast

Almanac

Astronomy

Apr. 26, 2017 Rise Set
Actual Time
Civil Twilight
Nautical Twilight
Astronomical Twilight
Moon
Length of Visible Light
Length of Day
Tomorrow will be .
, % of the Moon is Illuminated

Today's Extremes

State Highs State Lows

Community

WunderPhotos

WunderBlog® & News

Nearby

Air Quality

  Air Quality AQ Index Pollutant
Not available.

Snow Depth

Station Depth Elevation

Earthquake Activity

City Distance Mag. Time & Date
Minimum magnitude displayed is 2.5.

Coastal Water Temperatures

Place Temperature

Stations

Nearby Weather Stations

Station Location Temp. Windchill Dew Point Humidity Wind Precip. Elev Updated Type
                   

Watches & Warnings

There are currently no watches in effect.